PWSweather.com
Personal Weather Stations
Station Observations
WATERF01
WaterfordIE

WaterfordIE

Lat: 52.2412507, Lon: -7.1414691

Elevation: 65

Station Type: Davis Vantage Vue

www.waterfordweather.com

High Low Average
Temperature 48.4°F9.1°C 38.4°F3.6°C 43.5°F6.4°C
Dew Point 45.3°F7.4°C 36.8°F2.7°C 41.8°F5.4°C
Winds 9.2 mph 14.8 kmh Calm Calm 3.0 mph NW4.8 kmh NW
Wind Gusts 15.0 mph24.1 kmh -- 6.0 mph9.7 kmh
Humidity 96% 89% 94%
Pressure 30.48 in1032.2 mb 30.42 in1030.1 mb -
Precipitation 0.00 in0.0 mm - -
Hour Temp Dew Point Humidity Winds Wind Gusts Pressure Precip Precip Rate Daily Precip Total
12:00 AM 39.7°F4.3°C 37.5°F3.1°C 92% 4.6 mph NW7.4 kmh NW 8.1 mph13.0 kmh 30.48 in1032.2 mb - 0.00 in0.0 mm 0.00 in0.0 mm
12:10 AM 39.5°F4.2°C 37.4°F3.0°C 92% 2.3 mph WNW3.7 kmh WNW 5.8 mph9.3 kmh 30.48 in1032.2 mb - 0.00 in0.0 mm 0.00 in0.0 mm
12:20 AM 39.4°F4.1°C 37.3°F2.9°C 92% 4.6 mph NW7.4 kmh NW 6.9 mph11.1 kmh 30.48 in1032.2 mb - 0.00 in0.0 mm 0.00 in0.0 mm
12:30 AM 39.4°F4.1°C 37.3°F2.9°C 92% 5.8 mph NW9.3 kmh NW 8.1 mph13.0 kmh 30.48 in1032.2 mb - 0.00 in0.0 mm 0.00 in0.0 mm
12:40 AM 39.1°F3.9°C 37.0°F2.8°C 92% 6.9 mph NW11.1 kmh NW 11.5 mph18.5 kmh 30.48 in1032.2 mb - 0.00 in0.0 mm 0.00 in0.0 mm
12:50 AM 38.8°F3.8°C 36.9°F2.7°C 93% 4.6 mph NW7.4 kmh NW 8.1 mph13.0 kmh 30.48 in1032.2 mb - 0.00 in0.0 mm 0.00 in0.0 mm
01:00 AM 38.7°F3.7°C 36.9°F2.7°C 93% 3.5 mph NW5.6 kmh NW 5.8 mph9.3 kmh 30.48 in1032.2 mb - 0.00 in0.0 mm 0.00 in0.0 mm
01:10 AM 38.7°F3.7°C 36.9°F2.7°C 93% 4.6 mph NW7.4 kmh NW 8.1 mph13.0 kmh 30.47 in1031.8 mb - 0.00 in0.0 mm 0.00 in0.0 mm
01:20 AM 38.6°F3.7°C 36.8°F2.7°C 93% 5.8 mph NW9.3 kmh NW 9.2 mph14.8 kmh 30.47 in1031.8 mb - 0.00 in0.0 mm 0.00 in0.0 mm
01:30 AM 38.4°F3.6°C 36.8°F2.7°C 94% 4.6 mph NW7.4 kmh NW 11.5 mph18.5 kmh 30.47 in1031.8 mb - 0.00 in0.0 mm 0.00 in0.0 mm
01:40 AM 38.4°F3.6°C 36.8°F2.7°C 94% 4.6 mph NW7.4 kmh NW 8.1 mph13.0 kmh 30.47 in1031.8 mb - 0.00 in0.0 mm 0.00 in0.0 mm
01:50 AM 38.4°F3.6°C 36.8°F2.7°C 94% 3.5 mph NW5.6 kmh NW 8.1 mph13.0 kmh 30.47 in1031.8 mb - 0.00 in0.0 mm 0.00 in0.0 mm
02:00 AM 39.1°F3.9°C 37.5°F3.1°C 94% 6.9 mph NW11.1 kmh NW 11.5 mph18.5 kmh 30.47 in1031.8 mb - 0.00 in0.0 mm 0.00 in0.0 mm
02:10 AM 39.4°F4.1°C 37.5°F3.1°C 93% 2.3 mph WNW3.7 kmh WNW 8.1 mph13.0 kmh 30.47 in1031.8 mb - 0.00 in0.0 mm 0.00 in0.0 mm
02:20 AM 39.3°F4.1°C 37.7°F3.2°C 94% 5.8 mph WNW9.3 kmh WNW 8.1 mph13.0 kmh 30.47 in1031.8 mb - 0.00 in0.0 mm 0.00 in0.0 mm
02:30 AM 39.3°F4.1°C 37.7°F3.2°C 94% 1.2 mph WNW1.9 kmh WNW 2.3 mph3.7 kmh 30.47 in1031.8 mb - 0.00 in0.0 mm 0.00 in0.0 mm
02:40 AM 39.7°F4.3°C 38.2°F3.4°C 94% 6.9 mph NW11.1 kmh NW 15.0 mph24.1 kmh 30.47 in1031.8 mb - 0.00 in0.0 mm 0.00 in0.0 mm
02:50 AM 39.9°F4.4°C 38.0°F3.3°C 93% 6.9 mph NW11.1 kmh NW 11.5 mph18.5 kmh 30.47 in1031.8 mb - 0.00 in0.0 mm 0.00 in0.0 mm
03:00 AM 39.9°F4.4°C 38.3°F3.5°C 94% 8.1 mph NW13.0 kmh NW 10.4 mph16.7 kmh 30.47 in1031.8 mb - 0.00 in0.0 mm 0.00 in0.0 mm
03:10 AM 40.1°F4.5°C 38.2°F3.4°C 93% 5.8 mph NW9.3 kmh NW 8.1 mph13.0 kmh 30.46 in1031.5 mb - 0.00 in0.0 mm 0.00 in0.0 mm
03:20 AM 40.3°F4.6°C 38.4°F3.6°C 93% 5.8 mph NW9.3 kmh NW 8.1 mph13.0 kmh 30.46 in1031.5 mb - 0.00 in0.0 mm 0.00 in0.0 mm
03:30 AM 40.2°F4.6°C 38.3°F3.5°C 93% 4.6 mph NW7.4 kmh NW 8.1 mph13.0 kmh 30.46 in1031.5 mb - 0.00 in0.0 mm 0.00 in0.0 mm
03:40 AM 40.1°F4.5°C 38.2°F3.4°C 93% 4.6 mph WNW7.4 kmh WNW 8.1 mph13.0 kmh 30.46 in1031.5 mb - 0.00 in0.0 mm 0.00 in0.0 mm
03:50 AM 40.2°F4.6°C 38.3°F3.5°C 93% 3.5 mph NW5.6 kmh NW 5.8 mph9.3 kmh 30.46 in1031.5 mb - 0.00 in0.0 mm 0.00 in0.0 mm
04:00 AM 40.2°F4.6°C 38.3°F3.5°C 93% 1.2 mph NW1.9 kmh NW 2.3 mph3.7 kmh 30.46 in1031.5 mb - 0.00 in0.0 mm 0.00 in0.0 mm
04:10 AM 40.4°F4.7°C 38.5°F3.6°C 93% 4.6 mph NW7.4 kmh NW 5.8 mph9.3 kmh 30.46 in1031.5 mb - 0.00 in0.0 mm 0.00 in0.0 mm
04:20 AM 40.5°F4.7°C 38.6°F3.7°C 93% 3.5 mph NW5.6 kmh NW 5.8 mph9.3 kmh 30.46 in1031.5 mb - 0.00 in0.0 mm 0.00 in0.0 mm
04:30 AM 40.4°F4.7°C 38.5°F3.6°C 93% 3.5 mph NW5.6 kmh NW 5.8 mph9.3 kmh 30.46 in1031.5 mb - 0.00 in0.0 mm 0.00 in0.0 mm
04:40 AM 40.5°F4.7°C 38.6°F3.7°C 93% 2.3 mph NW3.7 kmh NW 6.9 mph11.1 kmh 30.46 in1031.5 mb - 0.00 in0.0 mm 0.00 in0.0 mm
04:50 AM 40.7°F4.8°C 38.8°F3.8°C 93% 3.5 mph NW5.6 kmh NW 5.8 mph9.3 kmh 30.46 in1031.5 mb - 0.00 in0.0 mm 0.00 in0.0 mm
05:00 AM 40.8°F4.9°C 38.9°F3.8°C 93% 3.5 mph NW5.6 kmh NW 5.8 mph9.3 kmh 30.46 in1031.5 mb - 0.00 in0.0 mm 0.00 in0.0 mm
05:10 AM 40.8°F4.9°C 38.9°F3.8°C 93% 3.5 mph NW5.6 kmh NW 5.8 mph9.3 kmh 30.46 in1031.5 mb - 0.00 in0.0 mm 0.00 in0.0 mm
05:20 AM 40.6°F4.8°C 38.7°F3.7°C 93% 3.5 mph NW5.6 kmh NW 5.8 mph9.3 kmh 30.46 in1031.5 mb - 0.00 in0.0 mm 0.00 in0.0 mm
05:30 AM 40.6°F4.8°C 39.0°F3.9°C 94% 1.2 mph NW1.9 kmh NW 2.3 mph3.7 kmh 30.46 in1031.5 mb - 0.00 in0.0 mm 0.00 in0.0 mm
05:40 AM 40.5°F4.7°C 38.9°F3.8°C 94% 2.3 mph NW3.7 kmh NW 2.3 mph3.7 kmh 30.46 in1031.5 mb - 0.00 in0.0 mm 0.00 in0.0 mm
05:50 AM 40.8°F4.9°C 39.2°F4.0°C 94% 3.5 mph NW5.6 kmh NW 5.8 mph9.3 kmh 30.46 in1031.5 mb - 0.00 in0.0 mm 0.00 in0.0 mm
06:00 AM 41.2°F5.1°C 39.6°F4.2°C 94% 2.3 mph WNW3.7 kmh WNW 8.1 mph13.0 kmh 30.46 in1031.5 mb - 0.00 in0.0 mm 0.00 in0.0 mm
06:10 AM 41.2°F5.1°C 39.6°F4.2°C 94% 3.5 mph NW5.6 kmh NW 5.8 mph9.3 kmh 30.46 in1031.5 mb - 0.00 in0.0 mm 0.00 in0.0 mm
06:20 AM 41.0°F5.0°C 39.4°F4.1°C 94% 2.3 mph NW3.7 kmh NW 2.3 mph3.7 kmh 30.46 in1031.5 mb - 0.00 in0.0 mm 0.00 in0.0 mm
06:30 AM 40.9°F4.9°C 39.3°F4.1°C 94% 2.3 mph NW3.7 kmh NW 5.8 mph9.3 kmh 30.46 in1031.5 mb - 0.00 in0.0 mm 0.00 in0.0 mm
06:40 AM 41.1°F5.1°C 39.5°F4.2°C 94% 3.5 mph NW5.6 kmh NW 5.8 mph9.3 kmh 30.46 in1031.5 mb - 0.00 in0.0 mm 0.00 in0.0 mm
06:50 AM 41.0°F5.0°C 39.4°F4.1°C 94% 2.3 mph NW3.7 kmh NW 5.8 mph9.3 kmh 30.46 in1031.5 mb - 0.00 in0.0 mm 0.00 in0.0 mm
07:00 AM 41.1°F5.1°C 39.5°F4.2°C 94% 2.3 mph NW3.7 kmh NW 4.6 mph7.4 kmh 30.46 in1031.5 mb - 0.00 in0.0 mm 0.00 in0.0 mm
07:10 AM 41.0°F5.0°C 39.5°F4.2°C 94% Calm Calm -- 30.46 in1031.5 mb - 0.00 in0.0 mm 0.00 in0.0 mm
07:20 AM 41.1°F5.1°C 39.5°F4.2°C 94% 1.2 mph NW1.9 kmh NW 2.3 mph3.7 kmh 30.46 in1031.5 mb - 0.00 in0.0 mm 0.00 in0.0 mm
07:30 AM 41.0°F5.0°C 39.4°F4.1°C 94% 2.3 mph NW3.7 kmh NW 5.8 mph9.3 kmh 30.46 in1031.5 mb - 0.00 in0.0 mm 0.00 in0.0 mm
07:40 AM 40.8°F4.9°C 39.2°F4.0°C 94% 1.2 mph NW1.9 kmh NW 2.3 mph3.7 kmh 30.46 in1031.5 mb - 0.00 in0.0 mm 0.00 in0.0 mm
07:50 AM 40.7°F4.8°C 39.1°F3.9°C 94% 1.2 mph NW1.9 kmh NW 2.3 mph3.7 kmh 30.46 in1031.5 mb - 0.00 in0.0 mm 0.00 in0.0 mm
08:00 AM 40.7°F4.8°C 39.1°F3.9°C 94% 1.2 mph WNW1.9 kmh WNW 4.6 mph7.4 kmh 30.45 in1031.2 mb - 0.00 in0.0 mm 0.00 in0.0 mm
08:10 AM 40.7°F4.8°C 39.4°F4.1°C 95% 2.3 mph WNW3.7 kmh WNW 5.8 mph9.3 kmh 30.45 in1031.2 mb - 0.00 in0.0 mm 0.00 in0.0 mm
08:20 AM 40.9°F4.9°C 39.6°F4.2°C 95% 4.6 mph NW7.4 kmh NW 8.1 mph13.0 kmh 30.45 in1031.2 mb - 0.00 in0.0 mm 0.00 in0.0 mm
08:30 AM 41.1°F5.1°C 39.8°F4.3°C 95% 4.6 mph NW7.4 kmh NW 5.8 mph9.3 kmh 30.45 in1031.2 mb - 0.00 in0.0 mm 0.00 in0.0 mm
08:40 AM 41.3°F5.2°C 40.0°F4.4°C 95% 1.2 mph NNW1.9 kmh NNW 4.6 mph7.4 kmh 30.46 in1031.5 mb - 0.00 in0.0 mm 0.00 in0.0 mm
08:50 AM 41.4°F5.2°C 40.1°F4.5°C 95% 4.6 mph NW7.4 kmh NW 8.1 mph13.0 kmh 30.46 in1031.5 mb - 0.00 in0.0 mm 0.00 in0.0 mm
09:00 AM 41.7°F5.4°C 40.4°F4.7°C 95% 3.5 mph NW5.6 kmh NW 5.8 mph9.3 kmh 30.46 in1031.5 mb - 0.00 in0.0 mm 0.00 in0.0 mm
09:10 AM 42.1°F5.6°C 40.8°F4.9°C 95% 5.8 mph NW9.3 kmh NW 8.1 mph13.0 kmh 30.46 in1031.5 mb - 0.00 in0.0 mm 0.00 in0.0 mm
09:20 AM 42.4°F5.8°C 41.1°F5.1°C 95% 3.5 mph NW5.6 kmh NW 5.8 mph9.3 kmh 30.46 in1031.5 mb - 0.00 in0.0 mm 0.00 in0.0 mm
09:30 AM 42.4°F5.8°C 41.1°F5.1°C 95% 4.6 mph NNW7.4 kmh NNW 5.8 mph9.3 kmh 30.46 in1031.5 mb - 0.00 in0.0 mm 0.00 in0.0 mm
09:40 AM 42.5°F5.8°C 41.2°F5.1°C 95% 3.5 mph NW5.6 kmh NW 5.8 mph9.3 kmh 30.46 in1031.5 mb - 0.00 in0.0 mm 0.00 in0.0 mm
09:50 AM 42.6°F5.9°C 41.3°F5.2°C 95% 4.6 mph NW7.4 kmh NW 8.1 mph13.0 kmh 30.46 in1031.5 mb - 0.00 in0.0 mm 0.00 in0.0 mm
10:00 AM 42.4°F5.8°C 41.1°F5.1°C 95% 2.3 mph NW3.7 kmh NW 4.6 mph7.4 kmh 30.46 in1031.5 mb - 0.00 in0.0 mm 0.00 in0.0 mm
10:10 AM 42.2°F5.7°C 40.9°F4.9°C 95% 2.3 mph NW3.7 kmh NW 5.8 mph9.3 kmh 30.46 in1031.5 mb - 0.00 in0.0 mm 0.00 in0.0 mm
10:20 AM 42.2°F5.7°C 40.9°F4.9°C 95% 1.2 mph NW1.9 kmh NW 5.8 mph9.3 kmh 30.46 in1031.5 mb - 0.00 in0.0 mm 0.00 in0.0 mm
10:30 AM 42.5°F5.8°C 41.2°F5.1°C 95% 4.6 mph NW7.4 kmh NW 5.8 mph9.3 kmh 30.46 in1031.5 mb - 0.00 in0.0 mm 0.00 in0.0 mm
10:40 AM 42.7°F5.9°C 41.4°F5.2°C 95% 5.8 mph NW9.3 kmh NW 9.2 mph14.8 kmh 30.46 in1031.5 mb - 0.00 in0.0 mm 0.00 in0.0 mm
10:50 AM 43.3°F6.3°C 41.7°F5.4°C 94% 6.9 mph NW11.1 kmh NW 11.5 mph18.5 kmh 30.46 in1031.5 mb - 0.00 in0.0 mm 0.00 in0.0 mm
11:00 AM 43.7°F6.5°C 42.0°F5.6°C 94% 4.6 mph NW7.4 kmh NW 5.8 mph9.3 kmh 30.45 in1031.2 mb - 0.00 in0.0 mm 0.00 in0.0 mm
11:10 AM 44.3°F6.8°C 42.7°F5.9°C 94% 5.8 mph NW9.3 kmh NW 11.5 mph18.5 kmh 30.45 in1031.2 mb - 0.00 in0.0 mm 0.00 in0.0 mm
11:20 AM 45.0°F7.2°C 43.4°F6.3°C 94% 4.6 mph NW7.4 kmh NW 6.9 mph11.1 kmh 30.45 in1031.2 mb - 0.00 in0.0 mm 0.00 in0.0 mm
11:30 AM 45.5°F7.5°C 43.6°F6.4°C 93% 6.9 mph NW11.1 kmh NW 8.1 mph13.0 kmh 30.45 in1031.2 mb - 0.00 in0.0 mm 0.00 in0.0 mm
11:40 AM 45.8°F7.7°C 43.6°F6.4°C 92% 4.6 mph NW7.4 kmh NW 8.1 mph13.0 kmh 30.45 in1031.2 mb - 0.00 in0.0 mm 0.00 in0.0 mm
11:50 AM 46.0°F7.8°C 43.8°F6.6°C 92% 5.8 mph NW9.3 kmh NW 8.1 mph13.0 kmh 30.45 in1031.2 mb - 0.00 in0.0 mm 0.00 in0.0 mm
12:00 PM 46.0°F7.8°C 43.8°F6.6°C 92% 5.8 mph NW9.3 kmh NW 9.2 mph14.8 kmh 30.45 in1031.2 mb - 0.00 in0.0 mm 0.00 in0.0 mm
12:10 PM 46.0°F7.8°C 43.8°F6.6°C 92% 4.6 mph NW7.4 kmh NW 9.2 mph14.8 kmh 30.44 in1030.8 mb - 0.00 in0.0 mm 0.00 in0.0 mm
12:20 PM 46.1°F7.8°C 43.9°F6.6°C 92% 4.6 mph NW7.4 kmh NW 8.1 mph13.0 kmh 30.44 in1030.8 mb - 0.00 in0.0 mm 0.00 in0.0 mm
12:30 PM 46.5°F8.1°C 44.3°F6.8°C 92% 2.3 mph NW3.7 kmh NW 5.8 mph9.3 kmh 30.44 in1030.8 mb - 0.00 in0.0 mm 0.00 in0.0 mm
12:40 PM 46.6°F8.1°C 44.1°F6.7°C 91% 4.6 mph NW7.4 kmh NW 8.1 mph13.0 kmh 30.44 in1030.8 mb - 0.00 in0.0 mm 0.00 in0.0 mm
12:50 PM 46.8°F8.2°C 44.3°F6.8°C 91% 5.8 mph WNW9.3 kmh WNW 8.1 mph13.0 kmh 30.43 in1030.5 mb - 0.00 in0.0 mm 0.00 in0.0 mm
01:00 PM 46.8°F8.2°C 44.3°F6.8°C 91% 4.6 mph NW7.4 kmh NW 11.5 mph18.5 kmh 30.43 in1030.5 mb - 0.00 in0.0 mm 0.00 in0.0 mm
01:10 PM 46.9°F8.3°C 44.4°F6.9°C 91% 4.6 mph NW7.4 kmh NW 6.9 mph11.1 kmh 30.43 in1030.5 mb - 0.00 in0.0 mm 0.00 in0.0 mm
01:20 PM 47.3°F8.5°C 44.8°F7.1°C 91% 6.9 mph NW11.1 kmh NW 12.7 mph20.4 kmh 30.43 in1030.5 mb - 0.00 in0.0 mm 0.00 in0.0 mm
01:30 PM 47.6°F8.7°C 44.8°F7.1°C 90% 6.9 mph NW11.1 kmh NW 10.4 mph16.7 kmh 30.43 in1030.5 mb - 0.00 in0.0 mm 0.00 in0.0 mm
01:40 PM 47.6°F8.7°C 44.8°F7.1°C 90% 9.2 mph NW14.8 kmh NW 12.7 mph20.4 kmh 30.43 in1030.5 mb - 0.00 in0.0 mm 0.00 in0.0 mm
01:50 PM 48.0°F8.9°C 45.2°F7.3°C 90% 4.6 mph NW7.4 kmh NW 5.8 mph9.3 kmh 30.42 in1030.1 mb - 0.00 in0.0 mm 0.00 in0.0 mm
02:00 PM 48.3°F9.1°C 45.2°F7.3°C 89% 4.6 mph WNW7.4 kmh WNW 8.1 mph13.0 kmh 30.42 in1030.1 mb - 0.00 in0.0 mm 0.00 in0.0 mm
02:10 PM 48.4°F9.1°C 45.3°F7.4°C 89% 4.6 mph NW7.4 kmh NW 8.1 mph13.0 kmh 30.42 in1030.1 mb - 0.00 in0.0 mm 0.00 in0.0 mm
02:20 PM 48.3°F9.1°C 45.2°F7.3°C 89% 3.5 mph WSW5.6 kmh WSW 5.8 mph9.3 kmh 30.42 in1030.1 mb - 0.00 in0.0 mm 0.00 in0.0 mm
02:30 PM 48.2°F9.0°C 45.1°F7.3°C 89% 3.5 mph WNW5.6 kmh WNW 9.2 mph14.8 kmh 30.42 in1030.1 mb - 0.00 in0.0 mm 0.00 in0.0 mm
02:40 PM 48.0°F8.9°C 45.2°F7.3°C 90% 3.5 mph W5.6 kmh W 5.8 mph9.3 kmh 30.42 in1030.1 mb - 0.00 in0.0 mm 0.00 in0.0 mm
02:50 PM 47.8°F8.8°C 45.0°F7.2°C 90% 4.6 mph NW7.4 kmh NW 9.2 mph14.8 kmh 30.42 in1030.1 mb - 0.00 in0.0 mm 0.00 in0.0 mm
03:00 PM 47.7°F8.7°C 44.9°F7.2°C 90% 4.6 mph W7.4 kmh W 8.1 mph13.0 kmh 30.42 in1030.1 mb - 0.00 in0.0 mm 0.00 in0.0 mm
03:10 PM 47.2°F8.4°C 44.7°F7.1°C 91% 4.6 mph NW7.4 kmh NW 8.1 mph13.0 kmh 30.42 in1030.1 mb - 0.00 in0.0 mm 0.00 in0.0 mm
03:20 PM 46.6°F8.1°C 44.5°F6.9°C 92% 6.9 mph NW11.1 kmh NW 13.8 mph22.2 kmh 30.43 in1030.5 mb - 0.00 in0.0 mm 0.00 in0.0 mm
03:30 PM 46.3°F7.9°C 44.4°F6.9°C 93% 5.8 mph NW9.3 kmh NW 9.2 mph14.8 kmh 30.43 in1030.5 mb - 0.00 in0.0 mm 0.00 in0.0 mm
03:40 PM 46.2°F7.9°C 44.3°F6.8°C 93% 5.8 mph NW9.3 kmh NW 11.5 mph18.5 kmh 30.43 in1030.5 mb - 0.00 in0.0 mm 0.00 in0.0 mm
03:50 PM 46.1°F7.8°C 44.5°F6.9°C 94% 4.6 mph NW7.4 kmh NW 8.1 mph13.0 kmh 30.43 in1030.5 mb - 0.00 in0.0 mm 0.00 in0.0 mm
04:00 PM 46.1°F7.8°C 44.4°F6.9°C 94% 2.3 mph WNW3.7 kmh WNW 5.8 mph9.3 kmh 30.43 in1030.5 mb - 0.00 in0.0 mm 0.00 in0.0 mm
04:10 PM 46.0°F7.8°C 44.4°F6.9°C 94% 2.3 mph WNW3.7 kmh WNW 5.8 mph9.3 kmh 30.43 in1030.5 mb - 0.00 in0.0 mm 0.00 in0.0 mm
04:20 PM 45.9°F7.7°C 44.3°F6.8°C 94% Calm Calm 4.6 mph7.4 kmh 30.43 in1030.5 mb - 0.00 in0.0 mm 0.00 in0.0 mm
04:30 PM 46.0°F7.8°C 44.4°F6.9°C 94% 1.2 mph WNW1.9 kmh WNW 2.3 mph3.7 kmh 30.43 in1030.5 mb - 0.00 in0.0 mm 0.00 in0.0 mm
04:40 PM 46.0°F7.8°C 44.4°F6.9°C 94% Calm Calm 2.3 mph3.7 kmh 30.43 in1030.5 mb - 0.00 in0.0 mm 0.00 in0.0 mm
04:50 PM 46.0°F7.8°C 44.4°F6.9°C 94% Calm Calm 2.3 mph3.7 kmh 30.43 in1030.5 mb - 0.00 in0.0 mm 0.00 in0.0 mm
05:00 PM 45.8°F7.7°C 44.2°F6.8°C 94% Calm Calm -- 30.43 in1030.5 mb - 0.00 in0.0 mm 0.00 in0.0 mm
05:10 PM 45.7°F7.6°C 44.1°F6.7°C 94% Calm Calm -- 30.43 in1030.5 mb - 0.00 in0.0 mm 0.00 in0.0 mm
05:20 PM 45.7°F7.6°C 44.1°F6.7°C 94% Calm Calm -- 30.43 in1030.5 mb - 0.00 in0.0 mm 0.00 in0.0 mm
05:30 PM 45.7°F7.6°C 44.1°F6.7°C 94% Calm Calm 2.3 mph3.7 kmh 30.43 in1030.5 mb - 0.00 in0.0 mm 0.00 in0.0 mm
05:40 PM 45.8°F7.7°C 44.2°F6.8°C 94% Calm Calm 2.3 mph3.7 kmh 30.43 in1030.5 mb - 0.00 in0.0 mm 0.00 in0.0 mm
05:50 PM 45.7°F7.6°C 44.1°F6.7°C 94% 1.2 mph WNW1.9 kmh WNW 2.3 mph3.7 kmh 30.43 in1030.5 mb - 0.00 in0.0 mm 0.00 in0.0 mm
06:00 PM 45.7°F7.6°C 44.1°F6.7°C 94% 1.2 mph NW1.9 kmh NW 2.3 mph3.7 kmh 30.43 in1030.5 mb - 0.00 in0.0 mm 0.00 in0.0 mm
06:10 PM 45.7°F7.6°C 44.1°F6.7°C 94% Calm Calm 2.3 mph3.7 kmh 30.43 in1030.5 mb - 0.00 in0.0 mm 0.00 in0.0 mm
06:20 PM 45.8°F7.7°C 44.1°F6.7°C 94% Calm Calm 2.3 mph3.7 kmh 30.43 in1030.5 mb - 0.00 in0.0 mm 0.00 in0.0 mm
06:30 PM 45.7°F7.6°C 44.1°F6.7°C 94% 1.2 mph W1.9 kmh W 2.3 mph3.7 kmh 30.43 in1030.5 mb - 0.00 in0.0 mm 0.00 in0.0 mm
06:40 PM 45.5°F7.5°C 44.2°F6.8°C 95% 1.2 mph NW1.9 kmh NW 2.3 mph3.7 kmh 30.43 in1030.5 mb - 0.00 in0.0 mm 0.00 in0.0 mm
06:50 PM 45.4°F7.4°C 44.1°F6.7°C 95% 1.2 mph NW1.9 kmh NW 2.3 mph3.7 kmh 30.43 in1030.5 mb - 0.00 in0.0 mm 0.00 in0.0 mm
07:00 PM 45.1°F7.3°C 43.8°F6.6°C 95% 1.2 mph WNW1.9 kmh WNW 2.3 mph3.7 kmh 30.43 in1030.5 mb - 0.00 in0.0 mm 0.00 in0.0 mm
07:10 PM 45.1°F7.3°C 44.0°F6.7°C 96% 1.2 mph WNW1.9 kmh WNW 4.6 mph7.4 kmh 30.43 in1030.5 mb - 0.00 in0.0 mm 0.00 in0.0 mm
07:20 PM 45.2°F7.3°C 44.1°F6.7°C 96% 1.2 mph WNW1.9 kmh WNW 5.8 mph9.3 kmh 30.43 in1030.5 mb - 0.00 in0.0 mm 0.00 in0.0 mm
07:30 PM 45.2°F7.3°C 44.1°F6.7°C 96% 2.3 mph W3.7 kmh W 5.8 mph9.3 kmh 30.44 in1030.8 mb - 0.00 in0.0 mm 0.00 in0.0 mm
07:40 PM 45.2°F7.3°C 44.1°F6.7°C 96% Calm Calm 2.3 mph3.7 kmh 30.43 in1030.5 mb - 0.00 in0.0 mm 0.00 in0.0 mm
07:50 PM 45.1°F7.3°C 44.0°F6.7°C 96% 1.2 mph W1.9 kmh W 2.3 mph3.7 kmh 30.43 in1030.5 mb - 0.00 in0.0 mm 0.00 in0.0 mm
08:00 PM 45.4°F7.4°C 44.3°F6.8°C 96% 2.3 mph W3.7 kmh W 5.8 mph9.3 kmh 30.43 in1030.5 mb - 0.00 in0.0 mm 0.00 in0.0 mm
08:10 PM 45.3°F7.4°C 44.0°F6.7°C 95% 2.3 mph W3.7 kmh W 5.8 mph9.3 kmh 30.43 in1030.5 mb - 0.00 in0.0 mm 0.00 in0.0 mm
08:20 PM 45.2°F7.3°C 43.9°F6.6°C 95% 2.3 mph WNW3.7 kmh WNW 2.3 mph3.7 kmh 30.43 in1030.5 mb - 0.00 in0.0 mm 0.00 in0.0 mm
08:30 PM 45.3°F7.4°C 44.0°F6.7°C 95% 2.3 mph W3.7 kmh W 4.6 mph7.4 kmh 30.43 in1030.5 mb - 0.00 in0.0 mm 0.00 in0.0 mm
08:40 PM 45.5°F7.5°C 44.1°F6.7°C 95% 2.3 mph W3.7 kmh W 2.3 mph3.7 kmh 30.44 in1030.8 mb - 0.00 in0.0 mm 0.00 in0.0 mm
08:50 PM 45.5°F7.5°C 44.2°F6.8°C 95% 2.3 mph WNW3.7 kmh WNW 5.8 mph9.3 kmh 30.43 in1030.5 mb - 0.00 in0.0 mm 0.00 in0.0 mm
09:00 PM 45.5°F7.5°C 44.2°F6.8°C 95% 2.3 mph WNW3.7 kmh WNW 3.5 mph5.6 kmh 30.43 in1030.5 mb - 0.00 in0.0 mm 0.00 in0.0 mm
09:10 PM 45.3°F7.4°C 44.0°F6.7°C 95% Calm Calm 2.3 mph3.7 kmh 30.43 in1030.5 mb - 0.00 in0.0 mm 0.00 in0.0 mm
09:20 PM 45.1°F7.3°C 43.8°F6.6°C 95% Calm Calm -- 30.43 in1030.5 mb - 0.00 in0.0 mm 0.00 in0.0 mm
09:30 PM 44.9°F7.2°C 43.6°F6.4°C 95% 1.2 mph WNW1.9 kmh WNW 1.2 mph1.9 kmh 30.44 in1030.8 mb - 0.00 in0.0 mm 0.00 in0.0 mm
09:40 PM 44.8°F7.1°C 43.5°F6.4°C 95% Calm Calm 1.2 mph1.9 kmh 30.43 in1030.5 mb - 0.00 in0.0 mm 0.00 in0.0 mm
09:50 PM 44.7°F7.1°C 43.4°F6.3°C 95% Calm Calm -- 30.44 in1030.8 mb - 0.00 in0.0 mm 0.00 in0.0 mm
10:00 PM 44.9°F7.2°C 43.6°F6.4°C 95% 1.2 mph WNW1.9 kmh WNW 5.8 mph9.3 kmh 30.44 in1030.8 mb - 0.00 in0.0 mm 0.00 in0.0 mm
10:10 PM 45.2°F7.3°C 43.9°F6.6°C 95% Calm Calm 2.3 mph3.7 kmh 30.44 in1030.8 mb - 0.00 in0.0 mm 0.00 in0.0 mm
10:20 PM 45.2°F7.3°C 43.9°F6.6°C 95% 1.2 mph W1.9 kmh W 2.3 mph3.7 kmh 30.44 in1030.8 mb - 0.00 in0.0 mm 0.00 in0.0 mm
10:30 PM 45.2°F7.3°C 43.9°F6.6°C 95% 2.3 mph WNW3.7 kmh WNW 8.1 mph13.0 kmh 30.44 in1030.8 mb - 0.00 in0.0 mm 0.00 in0.0 mm
10:40 PM 45.3°F7.4°C 44.2°F6.8°C 96% 5.8 mph NW9.3 kmh NW 8.1 mph13.0 kmh 30.44 in1030.8 mb - 0.00 in0.0 mm 0.00 in0.0 mm
10:50 PM 45.2°F7.3°C 44.1°F6.7°C 96% 3.5 mph WNW5.6 kmh WNW 11.5 mph18.5 kmh 30.44 in1030.8 mb - 0.00 in0.0 mm 0.00 in0.0 mm
11:00 PM 45.0°F7.2°C 43.9°F6.6°C 96% 3.5 mph WNW5.6 kmh WNW 5.8 mph9.3 kmh 30.44 in1030.8 mb - 0.00 in0.0 mm 0.00 in0.0 mm
11:10 PM 44.9°F7.2°C 43.8°F6.6°C 96% 4.6 mph NW7.4 kmh NW 8.1 mph13.0 kmh 30.44 in1030.8 mb - 0.00 in0.0 mm 0.00 in0.0 mm
11:20 PM 44.9°F7.2°C 43.8°F6.6°C 96% 2.3 mph WNW3.7 kmh WNW 5.8 mph9.3 kmh 30.44 in1030.8 mb - 0.00 in0.0 mm 0.00 in0.0 mm
11:30 PM 44.9°F7.2°C 43.8°F6.6°C 96% 4.6 mph NW7.4 kmh NW 8.1 mph13.0 kmh 30.44 in1030.8 mb - 0.00 in0.0 mm 0.00 in0.0 mm
11:40 PM 44.9°F7.2°C 43.8°F6.6°C 96% 2.3 mph WNW3.7 kmh WNW 5.8 mph9.3 kmh 30.44 in1030.8 mb - 0.00 in0.0 mm 0.00 in0.0 mm
11:50 PM 45.0°F7.2°C 43.9°F6.6°C 96% 1.2 mph WNW1.9 kmh WNW 5.8 mph9.3 kmh 30.44 in1030.8 mb - 0.00 in0.0 mm 0.00 in0.0 mm